createdAt,value
2022-11-02T00:00:30.176Z,3.07
2022-11-02T00:02:57.407Z,3.37
2022-11-02T00:05:24.966Z,3.40
2022-11-02T00:07:55.642Z,3.27
2022-11-02T00:10:23.524Z,3.67
2022-11-02T00:12:51.224Z,3.47
2022-11-02T00:15:19.221Z,2.97
2022-11-02T00:17:50.142Z,3.60
2022-11-02T00:20:19.288Z,3.33
2022-11-02T00:22:48.697Z,3.70
2022-11-02T00:25:18.503Z,3.20
2022-11-02T00:27:45.504Z,3.30
2022-11-02T00:30:14.859Z,3.60
2022-11-02T00:32:42.078Z,3.30
2022-11-02T00:35:10.316Z,3.47
2022-11-02T00:37:37.665Z,3.47
2022-11-02T00:40:05.758Z,4.23
2022-11-02T00:42:32.739Z,5.03
2022-11-02T00:45:00.175Z,4.23
2022-11-02T00:47:27.245Z,4.33
2022-11-02T00:49:54.763Z,5.20
2022-11-02T00:52:21.833Z,4.70
2022-11-02T00:54:51.975Z,5.60
2022-11-02T00:57:19.420Z,4.80
2022-11-02T00:59:46.530Z,7.43
2022-11-02T01:02:15.691Z,6.77
2022-11-02T01:04:42.785Z,7.33
2022-11-02T01:07:09.822Z,7.23
2022-11-02T01:09:36.993Z,6.40
2022-11-02T01:12:05.059Z,6.20
2022-11-02T01:14:32.260Z,5.53
2022-11-02T01:16:59.357Z,5.73
2022-11-02T01:19:26.710Z,6.63
2022-11-02T01:21:53.806Z,5.87
2022-11-02T01:24:20.826Z,5.60
2022-11-02T01:26:52.553Z,5.63
2022-11-02T01:29:19.636Z,5.47
2022-11-02T01:34:35.268Z,5.30
2022-11-02T01:37:02.331Z,5.83
2022-11-02T01:39:29.372Z,4.50
2022-11-02T01:41:57.144Z,5.40
2022-11-02T01:44:33.620Z,5.37
2022-11-02T01:47:20.821Z,5.10
2022-11-02T01:49:52.038Z,5.23
2022-11-02T01:52:42.626Z,5.43
2022-11-02T01:55:25.897Z,5.50
2022-11-02T01:58:13.287Z,5.13
2022-11-02T02:00:40.786Z,5.27
2022-11-02T02:03:16.903Z,5.33
2022-11-02T02:05:49.430Z,5.40
2022-11-02T02:08:22.359Z,6.67
2022-11-02T02:10:49.486Z,6.37
2022-11-02T02:13:18.494Z,6.10
2022-11-02T02:16:18.811Z,5.37
2022-11-02T02:18:58.689Z,6.60
2022-11-02T02:22:06.823Z,6.07
2022-11-02T02:25:07.634Z,6.37
2022-11-02T02:28:02.815Z,6.30
2022-11-02T02:30:34.681Z,7.07
2022-11-02T02:33:11.240Z,6.60
2022-11-02T02:35:47.015Z,7.07
2022-11-02T02:38:34.930Z,6.23
2022-11-02T02:41:39.304Z,5.90
2022-11-02T02:44:17.167Z,6.50
2022-11-02T02:47:00.942Z,6.07
2022-11-02T02:49:56.219Z,5.53
2022-11-02T02:52:27.154Z,6.40
2022-11-02T02:54:59.564Z,7.57
2022-11-02T02:57:30.535Z,6.90
2022-11-02T02:59:57.509Z,7.43
2022-11-02T03:02:38.172Z,6.60
2022-11-02T03:05:25.024Z,8.00
2022-11-02T03:07:52.833Z,7.07
2022-11-02T03:11:24.011Z,7.10
2022-11-02T03:14:20.779Z,6.37
2022-11-02T03:17:20.327Z,6.67
2022-11-02T03:20:22.665Z,7.17
2022-11-02T03:23:12.467Z,6.83
2022-11-02T03:26:21.300Z,6.77
2022-11-02T03:29:14.146Z,6.97
2022-11-02T03:31:47.502Z,7.33
2022-11-02T03:34:34.462Z,8.33
2022-11-02T03:37:26.760Z,7.53
2022-11-02T03:39:58.865Z,7.53
2022-11-02T03:42:28.147Z,7.90
2022-11-02T03:45:00.813Z,8.17
2022-11-02T03:47:33.323Z,7.80
2022-11-02T03:50:07.098Z,6.70
2022-11-02T03:52:38.217Z,7.93
2022-11-02T03:55:12.502Z,6.00
2022-11-02T03:57:51.881Z,6.80
2022-11-02T04:00:30.802Z,7.20
2022-11-02T04:03:08.202Z,7.77
2022-11-02T04:05:40.628Z,7.07
2022-11-02T04:08:44.057Z,6.60
2022-11-02T04:11:30.914Z,7.20
2022-11-02T04:14:21.989Z,7.27
2022-11-02T04:16:50.037Z,7.20
2022-11-02T04:19:29.507Z,7.70
2022-11-02T04:22:24.948Z,8.37
2022-11-02T04:25:20.567Z,6.20
2022-11-02T04:28:14.510Z,6.63
2022-11-02T04:30:48.714Z,6.53
2022-11-02T04:33:34.685Z,7.33
2022-11-02T04:36:08.659Z,6.70
2022-11-02T04:38:42.500Z,6.57
2022-11-02T04:41:40.532Z,6.70
2022-11-02T04:44:27.877Z,5.97
2022-11-02T04:47:05.652Z,6.57
2022-11-02T04:49:34.929Z,8.20
2022-11-02T04:52:03.493Z,7.20
2022-11-02T04:54:33.571Z,6.70
2022-11-02T04:57:03.341Z,6.87
2022-11-02T04:59:32.121Z,6.80
2022-11-02T05:01:59.334Z,6.90
2022-11-02T05:04:26.745Z,7.27
2022-11-02T05:06:58.838Z,8.70
2022-11-02T05:09:28.586Z,8.47
2022-11-02T05:11:55.743Z,7.23
2022-11-02T05:14:23.373Z,7.20
2022-11-02T05:16:52.072Z,6.10
2022-11-02T05:19:19.119Z,6.00
2022-11-02T05:21:46.211Z,5.97
2022-11-02T05:24:13.743Z,5.50
2022-11-02T05:26:40.846Z,6.67
2022-11-02T05:29:09.211Z,8.80
2022-11-02T05:31:37.129Z,8.80
2022-11-02T05:34:04.141Z,7.57
2022-11-02T05:36:31.181Z,7.93
2022-11-02T05:38:58.640Z,7.63
2022-11-02T05:41:26.647Z,7.37
2022-11-02T05:43:56.046Z,7.57
2022-11-02T05:46:25.062Z,7.50
2022-11-02T05:48:52.108Z,7.50
2022-11-02T05:51:19.106Z,7.83
2022-11-02T05:53:46.199Z,7.70
2022-11-02T05:56:14.687Z,8.13
2022-11-02T05:58:41.849Z,8.43
2022-11-02T06:01:09.457Z,8.63
2022-11-02T06:03:36.814Z,9.87
2022-11-02T06:06:06.957Z,9.33
2022-11-02T06:08:35.829Z,8.23
2022-11-02T06:11:07.244Z,8.90
2022-11-02T06:13:34.730Z,7.90
2022-11-02T06:16:04.059Z,7.53
2022-11-02T06:18:33.966Z,7.63
2022-11-02T06:21:01.380Z,7.20
2022-11-02T06:23:29.243Z,7.87
2022-11-02T06:25:58.567Z,6.23
2022-11-02T06:28:26.064Z,7.40
2022-11-02T06:30:54.402Z,7.50
2022-11-02T06:33:22.224Z,7.90
2022-11-02T06:35:51.981Z,7.90
2022-11-02T06:38:19.680Z,9.40
2022-11-02T06:41:04.317Z,7.63
2022-11-02T06:43:33.245Z,9.80
2022-11-02T06:46:00.375Z,7.60
2022-11-02T06:48:33.484Z,7.80
2022-11-02T06:51:03.009Z,7.70
2022-11-02T06:53:30.100Z,7.23
2022-11-02T06:55:58.619Z,6.70
2022-11-02T06:58:26.327Z,6.97
2022-11-02T07:01:07.265Z,6.73
2022-11-02T07:03:34.970Z,6.90
2022-11-02T07:06:02.932Z,6.77
2022-11-02T07:08:29.948Z,6.60
2022-11-02T07:10:58.236Z,6.87
2022-11-02T07:13:25.573Z,6.70
2022-11-02T07:15:54.214Z,5.53
2022-11-02T07:18:21.962Z,5.87
2022-11-02T07:20:48.972Z,7.33
2022-11-02T07:23:15.987Z,6.03
2022-11-02T07:25:43.025Z,5.83
2022-11-02T07:28:10.247Z,6.87
2022-11-02T07:30:37.314Z,7.37
2022-11-02T07:33:04.921Z,7.50
2022-11-02T07:35:34.230Z,7.13
2022-11-02T07:38:06.577Z,7.03
2022-11-02T07:40:35.879Z,7.50
2022-11-02T07:43:03.451Z,7.67
2022-11-02T07:45:40.093Z,8.03
2022-11-02T07:48:07.136Z,8.27
2022-11-02T07:50:34.108Z,7.97
2022-11-02T07:53:01.653Z,9.07
2022-11-02T07:55:31.428Z,7.77
2022-11-02T07:58:04.240Z,8.60
2022-11-02T08:00:33.809Z,9.10
2022-11-02T08:03:02.326Z,8.60
2022-11-02T08:05:31.221Z,9.37
2022-11-02T08:08:03.185Z,10.27
2022-11-02T08:10:35.400Z,8.63
2022-11-02T08:13:06.587Z,10.00
2022-11-02T08:15:33.617Z,8.67
2022-11-02T08:18:08.634Z,10.07
2022-11-02T08:20:36.764Z,10.13
2022-11-02T08:23:04.427Z,8.97
2022-11-02T08:25:32.293Z,9.03
2022-11-02T08:28:00.346Z,8.57
2022-11-02T08:30:29.540Z,8.73
2022-11-02T08:33:02.112Z,8.33
2022-11-02T08:35:29.665Z,7.57
2022-11-02T08:37:57.531Z,7.97
2022-11-02T08:40:24.686Z,6.43
2022-11-02T08:42:58.779Z,9.07
2022-11-02T08:45:27.146Z,7.47
2022-11-02T08:47:54.608Z,4.73
2022-11-02T08:50:22.488Z,5.87
2022-11-02T08:52:49.638Z,5.67
2022-11-02T08:55:16.783Z,6.07
2022-11-02T08:57:54.934Z,5.60
2022-11-02T09:00:24.864Z,2.43
2022-11-02T09:03:25.071Z,3.67
2022-11-02T09:05:58.423Z,2.27
2022-11-02T09:08:26.375Z,3.10
2022-11-02T09:10:53.774Z,4.73
2022-11-02T09:13:25.561Z,4.57
2022-11-02T09:15:56.581Z,2.23
2022-11-02T09:18:24.069Z,2.50
2022-11-02T09:20:51.541Z,2.10
2022-11-02T09:23:20.788Z,1.80
2022-11-02T09:25:48.372Z,2.40
2022-11-02T09:28:15.811Z,2.20
2022-11-02T09:30:43.237Z,2.73
2022-11-02T09:33:10.407Z,2.30
2022-11-02T09:35:39.301Z,2.40
2022-11-02T09:38:06.903Z,2.20
2022-11-02T09:41:19.801Z,2.13
2022-11-02T09:44:07.655Z,2.70
2022-11-02T09:46:40.100Z,1.70
2022-11-02T09:49:13.328Z,2.23
2022-11-02T09:51:46.008Z,2.07
2022-11-02T09:54:31.873Z,2.73
2022-11-02T09:57:01.796Z,2.17
2022-11-02T09:59:29.362Z,2.70
2022-11-02T10:02:23.212Z,1.83
2022-11-02T10:05:26.028Z,2.03
2022-11-02T10:08:23.045Z,2.40
2022-11-02T10:11:20.932Z,2.40
2022-11-02T10:14:06.034Z,2.33
2022-11-02T10:17:14.576Z,2.37
2022-11-02T10:19:48.187Z,1.83
2022-11-02T10:22:16.966Z,1.60
2022-11-02T10:24:46.973Z,2.00
2022-11-02T10:27:27.411Z,2.13
2022-11-02T10:30:18.447Z,1.90
2022-11-02T10:32:50.248Z,2.10
2022-11-02T10:35:45.430Z,2.00
2022-11-02T10:39:03.096Z,1.77
2022-11-02T10:42:09.041Z,1.90
2022-11-02T10:45:27.412Z,2.40
2022-11-02T10:48:27.615Z,2.27
2022-11-02T10:51:22.188Z,2.17
2022-11-02T10:53:52.184Z,2.10
2022-11-02T10:56:21.688Z,2.30
2022-11-02T10:59:12.954Z,1.70
2022-11-02T11:02:07.043Z,2.07
2022-11-02T11:04:35.053Z,2.07
2022-11-02T11:07:17.741Z,2.00
2022-11-02T11:09:55.625Z,1.97
2022-11-02T11:12:43.319Z,2.37
2022-11-02T11:15:47.679Z,1.70
2022-11-02T11:21:08.554Z,2.00
2022-11-02T11:23:35.913Z,1.70
2022-11-02T11:26:06.029Z,1.83
2022-11-02T11:28:59.900Z,2.23
2022-11-02T11:31:27.484Z,2.07
2022-11-02T11:33:57.562Z,1.90
2022-11-02T11:36:29.223Z,1.97
2022-11-02T11:39:18.538Z,2.07
2022-11-02T11:41:46.132Z,2.20
2022-11-02T11:44:15.662Z,2.00
2022-11-02T11:46:49.088Z,2.10
2022-11-02T11:50:02.805Z,1.87
2022-11-02T11:52:31.512Z,2.20
2022-11-02T11:55:01.891Z,1.90
2022-11-02T11:57:34.626Z,1.90
2022-11-02T12:00:22.789Z,2.03
2022-11-02T12:03:11.251Z,2.00
2022-11-02T12:06:23.640Z,2.00
2022-11-02T12:09:07.375Z,2.03
2022-11-02T12:11:57.315Z,1.97
2022-11-02T12:15:09.377Z,1.90
2022-11-02T12:18:05.821Z,2.00
2022-11-02T12:21:12.698Z,2.00
2022-11-02T12:24:24.212Z,1.60
2022-11-02T12:27:22.341Z,1.70
2022-11-02T12:30:11.168Z,1.73
2022-11-02T12:33:08.833Z,2.07
2022-11-02T12:36:12.618Z,1.87
2022-11-02T12:38:53.694Z,1.63
2022-11-02T12:41:55.539Z,2.23
2022-11-02T12:45:06.455Z,2.03
2022-11-02T12:48:01.260Z,1.95
2022-11-02T12:50:57.769Z,2.08
2022-11-02T12:54:04.264Z,1.70
2022-11-02T12:56:45.949Z,1.90
2022-11-02T12:59:26.557Z,2.27
2022-11-02T13:02:02.785Z,2.07
2022-11-02T13:04:39.654Z,2.47
2022-11-02T13:07:14.164Z,1.80
2022-11-02T13:09:59.146Z,2.22
2022-11-02T13:12:27.807Z,2.80
2022-11-02T13:14:59.395Z,2.80
2022-11-02T13:18:06.464Z,2.40
2022-11-02T13:20:50.891Z,2.53
2022-11-02T13:23:45.843Z,3.00
2022-11-02T13:26:24.356Z,2.88
2022-11-02T13:29:05.900Z,2.63
2022-11-02T13:31:37.387Z,2.58
2022-11-02T13:34:13.021Z,2.20
2022-11-02T13:36:40.892Z,2.58
2022-11-02T13:39:32.237Z,2.42
2022-11-02T13:43:00.457Z,2.40
2022-11-02T13:46:17.550Z,2.70
2022-11-02T13:49:10.069Z,2.13
2022-11-02T13:51:52.666Z,2.38
2022-11-02T13:54:39.385Z,2.70
2022-11-02T13:57:19.707Z,3.13
2022-11-02T13:59:54.740Z,2.80
2022-11-02T14:05:06.631Z,2.88
2022-11-02T14:07:40.733Z,2.65
2022-11-02T14:10:19.535Z,2.80
2022-11-02T14:12:54.769Z,2.83
2022-11-02T14:18:31.267Z,3.28
2022-11-02T14:20:59.304Z,2.53
2022-11-02T14:23:36.420Z,2.40
2022-11-02T14:26:04.136Z,2.77
2022-11-02T14:28:42.971Z,2.50
2022-11-02T14:31:44.506Z,2.30
2022-11-02T14:34:50.901Z,2.40
2022-11-02T14:38:05.439Z,2.30
2022-11-02T14:41:28.088Z,2.38
2022-11-02T14:44:27.130Z,2.30
2022-11-02T14:47:04.702Z,1.80
2022-11-02T14:49:38.163Z,2.80
2022-11-02T14:52:22.930Z,2.80
2022-11-02T14:55:28.602Z,2.57
2022-11-02T14:58:18.768Z,2.50
2022-11-02T15:01:04.525Z,3.07
2022-11-02T15:03:37.822Z,2.40
2022-11-02T15:09:11.180Z,2.67
2022-11-02T15:11:49.799Z,2.17
2022-11-02T15:14:58.285Z,2.30
2022-11-02T15:17:59.985Z,2.60
2022-11-02T15:20:33.360Z,2.97
2022-11-02T15:23:42.292Z,2.00
2022-11-02T15:26:16.563Z,2.57
2022-11-02T15:28:47.218Z,2.23
2022-11-02T15:31:25.868Z,2.80
2022-11-02T15:33:59.555Z,2.47
2022-11-02T15:36:36.816Z,2.37
2022-11-02T15:39:10.557Z,3.00
2022-11-02T15:41:54.392Z,2.17
2022-11-02T15:44:37.453Z,1.90
2022-11-02T15:47:29.548Z,2.30
2022-11-02T15:50:25.529Z,2.67
2022-11-02T15:53:24.124Z,2.27
2022-11-02T15:56:16.254Z,2.00
2022-11-02T15:59:26.395Z,2.20
2022-11-02T16:02:24.308Z,2.27
2022-11-02T16:05:00.510Z,2.20
2022-11-02T16:07:38.242Z,2.33
2022-11-02T16:10:30.057Z,3.23
2022-11-02T16:13:22.206Z,2.43
2022-11-02T16:15:50.447Z,2.63
2022-11-02T16:18:29.294Z,2.87
2022-11-02T16:21:02.140Z,2.20
2022-11-02T16:23:31.960Z,2.07
2022-11-02T16:26:01.486Z,2.93
2022-11-02T16:28:33.550Z,2.70
2022-11-02T16:31:19.284Z,2.40
2022-11-02T16:33:55.381Z,2.80
2022-11-02T16:36:35.838Z,3.10
2022-11-02T16:39:07.573Z,2.53
2022-11-02T16:41:35.513Z,3.13
2022-11-02T16:44:11.852Z,3.07
2022-11-02T16:46:50.519Z,2.57
2022-11-02T16:49:20.447Z,3.00
2022-11-02T16:52:03.572Z,2.80
2022-11-02T16:54:50.875Z,2.97
2022-11-02T16:57:50.174Z,3.00
2022-11-02T17:00:19.764Z,2.92
2022-11-02T17:02:47.813Z,2.70
2022-11-02T17:05:19.816Z,2.70
2022-11-02T17:08:05.453Z,2.60
2022-11-02T17:10:34.329Z,2.57
2022-11-02T17:13:03.089Z,2.53
2022-11-02T17:15:34.483Z,2.40
2022-11-02T17:18:30.564Z,2.77
2022-11-02T17:21:33.788Z,2.33
2022-11-02T17:24:01.061Z,2.60
2022-11-02T17:26:34.510Z,2.97
2022-11-02T17:29:21.147Z,2.13
2022-11-02T17:31:56.831Z,2.47
2022-11-02T17:34:24.137Z,2.43
2022-11-02T17:36:52.224Z,2.80
2022-11-02T17:39:20.781Z,2.37
2022-11-02T17:42:12.724Z,2.47
2022-11-02T17:44:40.129Z,2.40
2022-11-02T17:47:12.773Z,2.17
2022-11-02T17:49:39.938Z,2.67
2022-11-02T17:52:08.008Z,2.90
2022-11-02T17:54:35.219Z,2.83
2022-11-02T17:57:05.260Z,2.47
2022-11-02T17:59:32.415Z,2.73
2022-11-02T18:01:59.816Z,2.93
2022-11-02T18:04:27.173Z,3.00
2022-11-02T18:06:54.403Z,3.17
2022-11-02T18:09:24.027Z,2.70
2022-11-02T18:11:51.016Z,2.17
2022-11-02T18:14:18.180Z,3.57
2022-11-02T18:16:45.694Z,3.10
2022-11-02T18:19:13.229Z,3.87
2022-11-02T18:21:40.331Z,3.13
2022-11-02T18:24:07.600Z,3.47
2022-11-02T18:26:35.838Z,3.87
2022-11-02T18:29:04.431Z,3.57
2022-11-02T18:31:33.172Z,3.20
2022-11-02T18:34:00.253Z,3.60
2022-11-02T18:36:27.344Z,3.17
2022-11-02T18:38:54.396Z,3.33
2022-11-02T18:41:35.125Z,3.93
2022-11-02T18:44:11.915Z,3.67
2022-11-02T18:46:41.935Z,4.20
2022-11-02T18:49:08.984Z,3.43
2022-11-02T18:51:36.129Z,3.50
2022-11-02T18:54:05.947Z,3.60
2022-11-02T18:56:33.084Z,3.27
2022-11-02T18:59:00.609Z,4.33
2022-11-02T19:01:28.481Z,3.60
2022-11-02T19:03:58.017Z,4.43
2022-11-02T19:06:45.921Z,4.13
2022-11-02T19:09:20.722Z,3.10
2022-11-02T19:12:24.646Z,3.37
2022-11-02T19:14:54.480Z,4.43
2022-11-02T19:17:26.057Z,3.67
2022-11-02T19:19:53.590Z,4.13
2022-11-02T19:22:23.281Z,4.10
2022-11-02T19:24:50.900Z,3.57
2022-11-02T19:27:24.083Z,3.80
2022-11-02T19:29:52.057Z,3.60
2022-11-02T19:32:20.454Z,4.03
2022-11-02T19:34:47.884Z,3.70
2022-11-02T19:37:15.187Z,4.10
2022-11-02T19:39:42.625Z,4.40
2022-11-02T19:42:09.948Z,3.73
2022-11-02T19:44:42.533Z,3.70
2022-11-02T19:47:10.613Z,4.03
2022-11-02T19:49:38.132Z,5.40
2022-11-02T19:52:05.490Z,3.93
2022-11-02T19:54:32.836Z,3.87
2022-11-02T19:57:00.369Z,4.23
2022-11-02T19:59:28.838Z,3.80
2022-11-02T20:01:56.064Z,3.87
2022-11-02T20:04:23.281Z,3.97
2022-11-02T20:06:50.678Z,4.27
2022-11-02T20:09:19.849Z,4.17
2022-11-02T20:11:48.409Z,4.83
2022-11-02T20:14:16.656Z,4.50
2022-11-02T20:16:47.303Z,4.20
2022-11-02T20:19:17.839Z,3.70
2022-11-02T20:21:45.047Z,3.77
2022-11-02T20:24:12.630Z,4.17
2022-11-02T20:26:41.582Z,4.03
2022-11-02T20:29:12.214Z,4.20
2022-11-02T20:31:42.616Z,4.80
2022-11-02T20:34:12.647Z,4.13
2022-11-02T20:36:40.027Z,4.67
2022-11-02T20:39:07.688Z,4.70
2022-11-02T20:41:34.945Z,4.13
2022-11-02T20:44:02.228Z,4.80
2022-11-02T20:46:37.462Z,5.53
2022-11-02T20:49:19.933Z,4.63
2022-11-02T20:51:49.407Z,5.70
2022-11-02T20:54:18.434Z,5.37
2022-11-02T20:56:45.758Z,5.07
2022-11-02T20:59:13.283Z,3.93
2022-11-02T21:01:40.579Z,4.00
2022-11-02T21:04:08.470Z,4.40
2022-11-02T21:06:35.809Z,4.53
2022-11-02T21:09:09.114Z,4.67
2022-11-02T21:11:57.722Z,4.97
2022-11-02T21:14:25.131Z,4.70
2022-11-02T21:16:52.315Z,4.67
2022-11-02T21:19:19.553Z,5.33
2022-11-02T21:21:46.634Z,5.63
2022-11-02T21:24:13.769Z,4.43
2022-11-02T21:26:40.980Z,5.10
2022-11-02T21:29:09.217Z,5.87
2022-11-02T21:31:36.441Z,4.00
2022-11-02T21:34:04.118Z,4.47
2022-11-02T21:36:31.188Z,4.20
2022-11-02T21:38:58.970Z,5.43
2022-11-02T21:41:29.016Z,4.80
2022-11-02T21:43:56.717Z,6.23
2022-11-02T21:46:25.858Z,4.70
2022-11-02T21:48:54.740Z,5.37
2022-11-02T21:51:22.740Z,5.17
2022-11-02T21:53:51.021Z,5.00
2022-11-02T21:56:25.804Z,4.97
2022-11-02T21:58:54.306Z,4.90
2022-11-02T22:01:45.831Z,5.87
2022-11-02T22:04:15.223Z,5.57
2022-11-02T22:06:42.992Z,6.03
2022-11-02T22:09:12.514Z,6.33
2022-11-02T22:11:40.644Z,7.33
2022-11-02T22:14:08.024Z,7.53
2022-11-02T22:16:37.715Z,6.07
2022-11-02T22:19:09.853Z,6.83
2022-11-02T22:21:39.651Z,5.63
2022-11-02T22:24:07.544Z,6.00
2022-11-02T22:26:36.599Z,5.03
2022-11-02T22:29:05.100Z,6.53
2022-11-02T22:31:38.701Z,7.60
2022-11-02T22:34:08.423Z,6.77
2022-11-02T22:36:37.236Z,6.00
2022-11-02T22:39:06.943Z,6.40
2022-11-02T22:41:48.035Z,5.07
2022-11-02T22:44:17.413Z,5.00
2022-11-02T22:46:47.013Z,5.60
2022-11-02T22:49:15.305Z,5.30
2022-11-02T22:51:44.620Z,6.00
2022-11-02T22:54:15.628Z,5.83
2022-11-02T22:56:43.816Z,6.33
2022-11-02T22:59:11.245Z,6.20
2022-11-02T23:01:39.097Z,6.63
2022-11-02T23:04:06.733Z,6.40
2022-11-02T23:06:34.713Z,7.30
2022-11-02T23:09:02.313Z,5.50
2022-11-02T23:11:36.449Z,6.33
2022-11-02T23:14:12.747Z,6.23
2022-11-02T23:16:47.335Z,6.37
2022-11-02T23:19:27.728Z,6.30
2022-11-02T23:22:51.938Z,7.87
2022-11-02T23:25:19.382Z,6.60
2022-11-02T23:28:15.926Z,7.50
2022-11-02T23:31:02.216Z,6.37
2022-11-02T23:33:36.477Z,6.90
2022-11-02T23:36:15.402Z,7.43
2022-11-02T23:39:03.529Z,7.07
2022-11-02T23:41:32.381Z,7.20
2022-11-02T23:44:12.159Z,8.53
2022-11-02T23:46:45.621Z,8.10
2022-11-02T23:49:13.337Z,6.97
2022-11-02T23:51:58.773Z,8.97
2022-11-02T23:54:44.381Z,9.13
2022-11-02T23:57:11.644Z,7.53
2022-11-02T23:59:38.994Z,8.20
